Time;durP1;ratioP1;P1;durP2;ratioP2;P2;SDS_P1;SDS_P2;PMS_P1;PMS_P2;Temp;Humidity;BMP_temperature;BMP_pressure;BME280_temperature;BME280_humidity;BME280_pressure;Samples;Min_cycle;Max_cycle;Signal;HPM_P1;HPM_P2
2023/03/06 00:01:56;;;;;;;;;;;17.60;44.60;;;;;;10374389;28;1901;-74
2023/03/06 00:06:52;;;;;;;;;;;17.70;44.60;;;;;;10373751;28;848;-74
2023/03/06 00:11:48;;;;;;;;;;;17.60;44.60;;;;;;10373493;28;928;-74
2023/03/06 00:16:43;;;;;;;;;;;17.60;44.60;;;;;;10373387;28;795;-74
2023/03/06 00:21:38;;;;;;;;;;;17.60;44.60;;;;;;10374387;28;1898;-74
2023/03/06 00:26:35;;;;;;;;;;;17.60;44.70;;;;;;10373791;28;865;-74
2023/03/06 00:31:30;;;;;;;;;;;17.60;44.70;;;;;;10372724;28;888;-74
2023/03/06 00:36:26;;;;;;;;;;;17.60;44.60;;;;;;10373160;28;852;-74
2023/03/06 00:41:21;;;;;;;;;;;17.50;44.60;;;;;;10371714;28;1973;-74
2023/03/06 00:46:16;;;;;;;;;;;17.50;44.50;;;;;;10372344;28;893;-74
2023/03/06 00:51:12;;;;;;;;;;;17.50;44.50;;;;;;10372367;28;788;-74
2023/03/06 00:56:08;;;;;;;;;;;17.50;44.50;;;;;;10373008;28;866;-74
2023/03/06 01:01:03;;;;;;;;;;;17.50;44.50;;;;;;10371599;28;865;-74
2023/03/06 01:05:58;;;;;;;;;;;17.50;44.40;;;;;;10371359;28;1902;-74
2023/03/06 01:10:54;;;;;;;;;;;17.50;44.60;;;;;;10371940;28;854;-74
2023/03/06 01:15:49;;;;;;;;;;;17.50;44.40;;;;;;10371033;28;932;-74
2023/03/06 01:20:44;;;;;;;;;;;17.50;44.30;;;;;;10370861;28;922;-74
2023/03/06 01:25:40;;;;;;;;;;;17.50;44.40;;;;;;10370650;28;1906;-74
2023/03/06 01:30:35;;;;;;;;;;;17.50;44.30;;;;;;10371105;28;811;-74
2023/03/06 01:35:30;;;;;;;;;;;17.50;44.40;;;;;;10370270;28;877;-74
2023/03/06 01:40:26;;;;;;;;;;;17.50;44.40;;;;;;10370069;28;1164;-74
2023/03/06 01:45:21;;;;;;;;;;;17.50;44.40;;;;;;10369824;28;1923;-74
2023/03/06 01:50:17;;;;;;;;;;;17.50;44.40;;;;;;10369646;28;767;-74
2023/03/06 01:55:12;;;;;;;;;;;17.40;44.30;;;;;;10369905;28;831;-74
2023/03/06 02:00:07;;;;;;;;;;;17.40;44.30;;;;;;10369267;28;889;-74
2023/03/06 02:05:03;;;;;;;;;;;17.50;44.30;;;;;;10368471;28;1918;-74
2023/03/06 02:09:58;;;;;;;;;;;17.40;44.30;;;;;;10369069;28;949;-74
2023/03/06 02:14:53;;;;;;;;;;;17.40;44.30;;;;;;10368852;28;879;-74
2023/03/06 02:19:49;;;;;;;;;;;17.40;44.40;;;;;;10369266;28;826;-74
2023/03/06 02:24:44;;;;;;;;;;;17.50;44.30;;;;;;10368269;28;1901;-75
2023/03/06 02:29:39;;;;;;;;;;;17.50;44.30;;;;;;10368468;28;871;-74
2023/03/06 02:34:35;;;;;;;;;;;17.50;44.20;;;;;;10367996;28;937;-74
2023/03/06 02:39:30;;;;;;;;;;;17.50;44.20;;;;;;10367558;28;1428;-74
2023/03/06 02:44:25;;;;;;;;;;;17.50;44.30;;;;;;10367620;28;1914;-75
2023/03/06 02:49:21;;;;;;;;;;;17.50;44.20;;;;;;10367498;28;795;-74
2023/03/06 02:54:19;;;;;;;;;;;17.50;44.20;;;;;;10368014;28;850;-74
2023/03/06 02:59:15;;;;;;;;;;;17.50;44.20;;;;;;10367742;28;834;-74
2023/03/06 03:04:10;;;;;;;;;;;17.50;44.30;;;;;;10366912;28;1974;-74
2023/03/06 03:09:06;;;;;;;;;;;17.40;44.20;;;;;;10366824;28;1119;-74
2023/03/06 03:14:02;;;;;;;;;;;17.40;44.30;;;;;;10367223;28;838;-75
2023/03/06 03:18:57;;;;;;;;;;;17.40;44.20;;;;;;10367196;28;898;-74
2023/03/06 03:23:53;;;;;;;;;;;17.40;44.20;;;;;;10366353;28;1977;-74
2023/03/06 03:28:48;;;;;;;;;;;17.40;44.30;;;;;;10366368;28;956;-74
2023/03/06 03:33:43;;;;;;;;;;;17.40;44.20;;;;;;10366258;28;901;-74
2023/03/06 03:38:39;;;;;;;;;;;17.40;44.10;;;;;;10366158;28;911;-74
2023/03/06 03:43:34;;;;;;;;;;;17.40;44.20;;;;;;10366409;28;1977;-74
2023/03/06 03:48:29;;;;;;;;;;;17.30;44.10;;;;;;10366016;28;865;-74
2023/03/06 03:53:25;;;;;;;;;;;17.30;44.10;;;;;;10367120;28;878;-74
2023/03/06 03:58:20;;;;;;;;;;;17.40;44.20;;;;;;10366428;28;901;-74
2023/03/06 04:03:15;;;;;;;;;;;17.30;44.20;;;;;;10366244;28;1951;-74
2023/03/06 04:08:11;;;;;;;;;;;17.40;44.30;;;;;;10365036;28;1067;-74
2023/03/06 04:13:06;;;;;;;;;;;17.40;44.20;;;;;;10366748;28;791;-74
2023/03/06 04:18:02;;;;;;;;;;;17.30;44.10;;;;;;10365436;28;822;-74
2023/03/06 04:22:57;;;;;;;;;;;17.40;44.10;;;;;;10371937;28;1902;-74
2023/03/06 04:27:52;;;;;;;;;;;17.40;44.10;;;;;;10372977;28;830;-74
2023/03/06 04:32:48;;;;;;;;;;;17.30;44.10;;;;;;10373391;28;862;-74
2023/03/06 04:37:43;;;;;;;;;;;17.30;44.00;;;;;;10372617;28;946;-75
2023/03/06 04:42:38;;;;;;;;;;;17.30;44.00;;;;;;10372617;28;1972;-74
2023/03/06 04:47:34;;;;;;;;;;;17.40;44.10;;;;;;10372937;28;898;-74
2023/03/06 04:52:29;;;;;;;;;;;17.40;43.90;;;;;;10372120;28;862;-74
2023/03/06 04:57:25;;;;;;;;;;;17.40;43.90;;;;;;10371785;28;865;-74
2023/03/06 05:02:20;;;;;;;;;;;17.40;44.50;;;;;;10371488;28;2073;-74
2023/03/06 05:07:16;;;;;;;;;;;17.40;43.90;;;;;;10372020;28;806;-74
2023/03/06 05:12:11;;;;;;;;;;;17.40;43.90;;;;;;10371596;28;1031;-74
2023/03/06 05:17:06;;;;;;;;;;;17.40;43.80;;;;;;10370988;28;881;-74
2023/03/06 05:22:02;;;;;;;;;;;17.40;43.80;;;;;;10370809;28;1902;-74
2023/03/06 05:26:57;;;;;;;;;;;17.50;43.80;;;;;;10371277;28;831;-74
2023/03/06 05:31:53;;;;;;;;;;;17.50;43.80;;;;;;10369136;28;889;-74
2023/03/06 05:36:48;;;;;;;;;;;17.50;43.80;;;;;;10370226;28;1193;-74
2023/03/06 05:41:43;;;;;;;;;;;17.50;43.70;;;;;;10369931;28;1910;-74
2023/03/06 05:46:39;;;;;;;;;;;17.50;43.80;;;;;;10370538;28;911;-74
2023/03/06 05:51:34;;;;;;;;;;;17.50;43.80;;;;;;10369832;28;803;-74
2023/03/06 05:56:29;;;;;;;;;;;17.50;43.80;;;;;;10368943;28;862;-74
2023/03/06 06:01:27;;;;;;;;;;;17.50;43.80;;;;;;10369630;28;893;-74
2023/03/06 06:06:22;;;;;;;;;;;17.50;43.80;;;;;;10369657;28;1905;-74
2023/03/06 06:11:19;;;;;;;;;;;17.60;43.80;;;;;;10369008;28;945;-74
2023/03/06 06:16:15;;;;;;;;;;;17.50;43.80;;;;;;10369324;28;771;-74
2023/03/06 06:21:10;;;;;;;;;;;17.50;43.80;;;;;;10369330;28;875;-74
2023/03/06 06:26:06;;;;;;;;;;;17.50;43.80;;;;;;10367716;28;1906;-74
2023/03/06 06:31:01;;;;;;;;;;;17.50;43.80;;;;;;10368193;28;950;-78
2023/03/06 06:35:56;;;;;;;;;;;17.50;43.80;;;;;;10367992;28;838;-77
2023/03/06 06:40:52;;;;;;;;;;;17.60;43.80;;;;;;10367735;28;1153;-78
2023/03/06 06:45:47;;;;;;;;;;;17.60;43.70;;;;;;10367473;28;1975;-79
2023/03/06 06:50:43;;;;;;;;;;;17.50;43.60;;;;;;10368068;28;893;-76
2023/03/06 06:55:38;;;;;;;;;;;17.60;43.60;;;;;;10367368;28;815;-76
2023/03/06 07:00:33;;;;;;;;;;;17.50;43.60;;;;;;10367177;28;810;-77
2023/03/06 07:05:29;;;;;;;;;;;17.60;43.70;;;;;;10366339;28;1910;-76
2023/03/06 07:10:24;;;;;;;;;;;17.60;43.80;;;;;;10367451;28;819;-77
2023/03/06 07:15:19;;;;;;;;;;;17.50;43.80;;;;;;10366780;28;862;-76
2023/03/06 07:20:15;;;;;;;;;;;17.50;43.90;;;;;;10366600;28;777;-76
2023/03/06 07:25:10;;;;;;;;;;;17.40;43.90;;;;;;10365830;28;1965;-76
2023/03/06 07:30:05;;;;;;;;;;;17.40;43.90;;;;;;10366992;28;907;-78
2023/03/06 07:35:01;;;;;;;;;;;17.40;43.90;;;;;;10366319;28;827;-76
2023/03/06 07:39:56;;;;;;;;;;;17.50;44.00;;;;;;10366217;28;1187;-76
2023/03/06 07:44:52;;;;;;;;;;;17.50;44.00;;;;;;10365487;28;1917;-77
2023/03/06 07:49:47;;;;;;;;;;;17.40;44.00;;;;;;10366044;28;838;-75
2023/03/06 07:54:42;;;;;;;;;;;17.50;44.10;;;;;;10367569;28;888;-76
2023/03/06 07:59:40;;;;;;;;;;;17.50;44.10;;;;;;10374747;28;815;-76
2023/03/06 08:04:35;;;;;;;;;;;17.50;44.20;;;;;;10373838;28;1902;-75
2023/03/06 08:09:31;;;;;;;;;;;17.50;44.10;;;;;;10373738;28;921;-78
2023/03/06 08:14:26;;;;;;;;;;;17.50;44.10;;;;;;10373584;28;818;-75
2023/03/06 08:19:21;;;;;;;;;;;17.50;43.90;;;;;;10372771;28;910;-75
2023/03/06 08:24:17;;;;;;;;;;;17.60;44.00;;;;;;10374096;28;1905;-75
2023/03/06 08:29:14;;;;;;;;;;;17.60;44.10;;;;;;10372976;28;850;-75
2023/03/06 08:34:09;;;;;;;;;;;17.60;44.00;;;;;;10372741;28;904;-78
2023/03/06 08:39:04;;;;;;;;;;;17.70;44.20;;;;;;10372998;28;1168;-74
2023/03/06 08:44:00;;;;;;;;;;;17.70;44.30;;;;;;10372388;28;1965;-74
2023/03/06 08:48:55;;;;;;;;;;;17.70;44.60;;;;;;10373436;28;838;-76
2023/03/06 08:53:51;;;;;;;;;;;17.60;44.70;;;;;;10372713;28;886;-75
2023/03/06 08:58:46;;;;;;;;;;;17.50;44.70;;;;;;10372374;28;842;-75
2023/03/06 09:03:41;;;;;;;;;;;17.50;44.50;;;;;;10371583;28;1906;-76
2023/03/06 09:08:37;;;;;;;;;;;17.50;44.50;;;;;;10371746;28;825;-75
2023/03/06 09:13:32;;;;;;;;;;;17.40;44.50;;;;;;10371673;28;791;-75
2023/03/06 09:18:28;;;;;;;;;;;17.40;44.40;;;;;;10370672;28;1174;-77
2023/03/06 09:23:23;;;;;;;;;;;17.40;44.40;;;;;;10370535;28;1894;-78
2023/03/06 09:28:19;;;;;;;;;;;17.40;44.60;;;;;;10370844;28;912;-76
2023/03/06 09:33:14;;;;;;;;;;;17.30;44.40;;;;;;10371131;28;916;-75
2023/03/06 09:38:09;;;;;;;;;;;17.30;44.60;;;;;;10369885;28;850;-75
2023/03/06 09:43:05;;;;;;;;;;;17.20;44.60;;;;;;10370385;28;1913;-74
2023/03/06 09:48:00;;;;;;;;;;;17.20;44.70;;;;;;10369123;28;925;-75
2023/03/06 09:52:55;;;;;;;;;;;17.20;44.60;;;;;;10368900;28;842;-75
2023/03/06 09:57:51;;;;;;;;;;;17.20;44.60;;;;;;10369963;28;921;-75
2023/03/06 10:02:46;;;;;;;;;;;17.30;44.40;;;;;;10369048;28;1898;-75
2023/03/06 10:07:42;;;;;;;;;;;17.20;44.40;;;;;;10368883;28;873;-76
2023/03/06 10:12:37;;;;;;;;;;;17.20;44.30;;;;;;10368683;28;812;-75
2023/03/06 10:17:33;;;;;;;;;;;17.20;44.40;;;;;;10368088;28;847;-75
2023/03/06 10:22:28;;;;;;;;;;;17.20;44.30;;;;;;10369105;28;1898;-75
2023/03/06 10:27:24;;;;;;;;;;;17.20;44.30;;;;;;10367770;28;950;-75
2023/03/06 10:32:19;;;;;;;;;;;17.20;44.30;;;;;;10368134;28;956;-76
2023/03/06 10:37:14;;;;;;;;;;;17.20;44.30;;;;;;10367979;28;793;-78
2023/03/06 10:42:10;;;;;;;;;;;17.20;44.30;;;;;;10367101;28;1983;-75
2023/03/06 10:47:05;;;;;;;;;;;17.20;44.30;;;;;;10368271;28;885;-76
2023/03/06 10:52:01;;;;;;;;;;;17.20;44.30;;;;;;10367437;28;977;-75
2023/03/06 10:56:56;;;;;;;;;;;17.20;44.30;;;;;;10367617;28;851;-75
2023/03/06 11:01:52;;;;;;;;;;;17.20;44.30;;;;;;10367093;28;1971;-75
2023/03/06 11:06:47;;;;;;;;;;;17.20;44.30;;;;;;10366879;28;881;-75
2023/03/06 11:11:43;;;;;;;;;;;17.20;44.30;;;;;;10350151;28;988;-75
2023/03/06 11:16:38;;;;;;;;;;;17.30;44.40;;;;;;10366934;28;827;-75
2023/03/06 11:21:33;;;;;;;;;;;17.30;44.30;;;;;;10366646;28;797;-75
2023/03/06 11:26:29;;;;;;;;;;;17.20;44.30;;;;;;10366547;28;1890;-75
2023/03/06 11:31:24;;;;;;;;;;;17.30;44.40;;;;;;10366250;28;873;-76
2023/03/06 11:36:20;;;;;;;;;;;17.30;44.30;;;;;;10366931;28;860;-75
2023/03/06 11:41:15;;;;;;;;;;;17.30;44.40;;;;;;10366156;28;1309;-76
2023/03/06 11:46:10;;;;;;;;;;;17.30;44.30;;;;;;10366031;28;1967;-75
2023/03/06 11:51:06;;;;;;;;;;;17.30;44.20;;;;;;10366006;28;917;-75
2023/03/06 11:56:02;;;;;;;;;;;17.40;44.30;;;;;;10365945;28;888;-75
2023/03/06 12:00:57;;;;;;;;;;;17.40;44.30;;;;;;10365776;28;787;-75
2023/03/06 12:05:53;;;;;;;;;;;17.30;44.10;;;;;;10365840;28;1901;-78
2023/03/06 12:10:48;;;;;;;;;;;17.40;44.20;;;;;;10365045;28;874;-77
2023/03/06 12:15:43;;;;;;;;;;;17.60;44.30;;;;;;10365546;28;787;-75
2023/03/06 12:20:39;;;;;;;;;;;17.70;45.00;;;;;;10365449;28;874;-76
2023/03/06 12:25:34;;;;;;;;;;;17.80;45.10;;;;;;10365304;28;1897;-80
2023/03/06 12:30:29;;;;;;;;;;;17.80;45.30;;;;;;10365239;28;830;-80
2023/03/06 12:35:25;;;;;;;;;;;17.80;45.30;;;;;;10365770;28;878;-79
2023/03/06 12:40:20;;;;;;;;;;;17.90;45.30;;;;;;10366022;28;1263;-77
2023/03/06 12:45:16;;;;;;;;;;;17.90;45.20;;;;;;10371807;28;1909;-74
2023/03/06 12:50:12;;;;;;;;;;;17.90;45.10;;;;;;10372335;28;950;-82
2023/03/06 12:55:07;;;;;;;;;;;17.90;44.80;;;;;;10372659;28;814;-73
2023/03/06 13:00:03;;;;;;;;;;;17.90;44.40;;;;;;10371264;28;922;-74
2023/03/06 13:04:59;;;;;;;;;;;17.80;43.90;;;;;;10372405;28;1961;-72
2023/03/06 13:09:54;;;;;;;;;;;17.80;44.10;;;;;;10371835;28;881;-73
2023/03/06 13:14:50;;;;;;;;;;;17.80;43.50;;;;;;10371976;28;810;-76
2023/03/06 13:19:45;;;;;;;;;;;17.90;43.60;;;;;;10371101;28;884;-75
2023/03/06 13:24:42;;;;;;;;;;;17.70;43.90;;;;;;10371748;28;1910;-75
2023/03/06 13:29:38;;;;;;;;;;;17.80;43.90;;;;;;10371012;28;817;-77
2023/03/06 13:34:33;;;;;;;;;;;17.80;43.70;;;;;;10370414;28;897;-75
2023/03/06 13:39:28;;;;;;;;;;;17.90;43.70;;;;;;10370197;28;1340;-76
2023/03/06 13:44:24;;;;;;;;;;;17.80;43.70;;;;;;10370293;28;1969;-75
2023/03/06 13:49:19;;;;;;;;;;;17.80;43.80;;;;;;10369612;28;850;-76
2023/03/06 13:54:14;;;;;;;;;;;17.70;43.80;;;;;;10368877;28;889;-77
2023/03/06 13:59:10;;;;;;;;;;;17.80;43.80;;;;;;10369993;28;861;-75
2023/03/06 14:04:05;;;;;;;;;;;17.80;44.40;;;;;;10368965;28;1898;-75
2023/03/06 14:09:01;;;;;;;;;;;17.80;43.60;;;;;;10368670;28;970;-76
2023/03/06 14:13:56;;;;;;;;;;;17.70;43.50;;;;;;10369401;28;893;-76
2023/03/06 14:18:52;;;;;;;;;;;17.70;43.70;;;;;;10369041;28;929;-76
2023/03/06 14:23:47;;;;;;;;;;;17.60;43.80;;;;;;10368417;28;1902;-76
2023/03/06 14:28:43;;;;;;;;;;;17.60;43.80;;;;;;10368058;28;893;-76
2023/03/06 14:33:38;;;;;;;;;;;17.60;43.80;;;;;;10368397;28;934;-75
2023/03/06 14:38:34;;;;;;;;;;;17.50;43.80;;;;;;10368274;28;965;-75
2023/03/06 14:43:30;;;;;;;;;;;17.50;43.80;;;;;;10367033;28;1989;-76
2023/03/06 14:48:26;;;;;;;;;;;17.50;43.90;;;;;;10366691;28;942;-76
2023/03/06 14:53:21;;;;;;;;;;;17.50;43.90;;;;;;10367160;28;937;-75
2023/03/06 14:58:17;;;;;;;;;;;17.50;44.50;;;;;;10366996;28;885;-75
2023/03/06 15:03:12;;;;;;;;;;;17.50;43.90;;;;;;10367350;28;1902;-76
2023/03/06 15:08:07;;;;;;;;;;;17.50;43.80;;;;;;10367056;28;792;-73
2023/03/06 15:13:03;;;;;;;;;;;17.70;43.80;;;;;;10366970;28;863;-73
2023/03/06 15:17:58;;;;;;;;;;;17.70;44.10;;;;;;10367326;28;879;-74
2023/03/06 15:22:54;;;;;;;;;;;17.80;44.60;;;;;;10366549;28;1976;-74
2023/03/06 15:27:49;;;;;;;;;;;17.90;44.80;;;;;;10367202;28;902;-74
2023/03/06 15:32:44;;;;;;;;;;;17.90;44.40;;;;;;10366371;28;873;-75
2023/03/06 15:37:40;;;;;;;;;;;17.90;44.10;;;;;;10365679;28;957;-75
2023/03/06 15:42:35;;;;;;;;;;;17.90;44.30;;;;;;10365333;28;1985;-75
2023/03/06 15:47:30;;;;;;;;;;;17.80;44.50;;;;;;10365504;28;1189;-75
2023/03/06 15:52:26;;;;;;;;;;;17.80;44.60;;;;;;10366251;28;928;-74
2023/03/06 15:57:22;;;;;;;;;;;17.90;44.40;;;;;;10366484;28;841;-74
2023/03/06 16:02:17;;;;;;;;;;;17.80;44.40;;;;;;10365778;28;1965;-75
2023/03/06 16:07:12;;;;;;;;;;;17.70;44.30;;;;;;10366311;28;838;-75
2023/03/06 16:12:08;;;;;;;;;;;17.60;44.70;;;;;;10366359;28;907;-76
2023/03/06 16:17:03;;;;;;;;;;;17.60;44.70;;;;;;10369310;28;882;-75
2023/03/06 16:21:58;;;;;;;;;;;17.50;44.60;;;;;;10373341;28;1906;-75
2023/03/06 16:26:54;;;;;;;;;;;17.50;44.50;;;;;;10373143;28;940;-75
2023/03/06 16:31:49;;;;;;;;;;;17.50;44.40;;;;;;10373580;28;958;-75
2023/03/06 16:36:45;;;;;;;;;;;17.50;44.30;;;;;;10372246;28;941;-76
2023/03/06 16:41:40;;;;;;;;;;;17.50;44.30;;;;;;10372429;28;1385;-76
2023/03/06 16:46:35;;;;;;;;;;;17.50;44.30;;;;;;10372428;28;1914;-76
2023/03/06 16:51:31;;;;;;;;;;;17.50;44.30;;;;;;10372292;28;933;-76
2023/03/06 16:56:26;;;;;;;;;;;17.50;44.20;;;;;;10372718;28;873;-77
2023/03/06 17:01:22;;;;;;;;;;;17.50;44.20;;;;;;10371961;28;925;-78
2023/03/06 17:06:17;;;;;;;;;;;17.50;44.10;;;;;;10370958;28;1961;-77
2023/03/06 17:11:13;;;;;;;;;;;17.40;44.00;;;;;;10371769;28;1023;-77
2023/03/06 17:16:08;;;;;;;;;;;17.40;43.90;;;;;;10371907;28;841;-77
2023/03/06 17:21:03;;;;;;;;;;;17.40;43.90;;;;;;10371868;28;967;-75
2023/03/06 17:25:59;;;;;;;;;;;17.40;43.80;;;;;;10371300;28;1963;-76
2023/03/06 17:30:54;;;;;;;;;;;17.40;43.80;;;;;;10370822;28;1011;-75
2023/03/06 17:35:50;;;;;;;;;;;17.40;44.30;;;;;;10371153;28;842;-76
2023/03/06 17:40:45;;;;;;;;;;;17.40;43.80;;;;;;10369905;28;1578;-76
2023/03/06 17:45:40;;;;;;;;;;;17.40;43.70;;;;;;10370071;28;1979;-75
2023/03/06 17:50:36;;;;;;;;;;;17.40;43.80;;;;;;10369391;28;917;-76
2023/03/06 17:55:31;;;;;;;;;;;17.40;43.70;;;;;;10370979;28;870;-75
2023/03/06 18:00:26;;;;;;;;;;;17.40;43.70;;;;;;10370184;28;872;-74
2023/03/06 18:05:22;;;;;;;;;;;17.40;43.60;;;;;;10369307;28;1962;-76
2023/03/06 18:10:17;;;;;;;;;;;17.50;43.50;;;;;;10369763;28;910;-75
2023/03/06 18:15:12;;;;;;;;;;;17.40;43.70;;;;;;10368379;28;985;-76
2023/03/06 18:20:08;;;;;;;;;;;17.40;43.70;;;;;;10368800;28;878;-75
2023/03/06 18:25:03;;;;;;;;;;;17.40;43.60;;;;;;10369149;28;1985;-76
2023/03/06 18:29:59;;;;;;;;;;;17.40;43.70;;;;;;10368410;28;861;-75
2023/03/06 18:34:54;;;;;;;;;;;17.40;44.30;;;;;;10368229;28;764;-75
2023/03/06 18:39:50;;;;;;;;;;;17.40;44.20;;;;;;10367209;28;1210;-76
2023/03/06 18:44:46;;;;;;;;;;;17.40;43.70;;;;;;10367753;28;1910;-76
2023/03/06 18:49:44;;;;;;;;;;;17.40;43.70;;;;;;10367691;28;814;-76
2023/03/06 18:54:39;;;;;;;;;;;17.40;43.60;;;;;;10367577;28;953;-76
2023/03/06 18:59:34;;;;;;;;;;;17.40;43.60;;;;;;10367983;28;928;-75
2023/03/06 19:04:30;;;;;;;;;;;17.40;43.70;;;;;;10367456;28;1961;-75
2023/03/06 19:09:25;;;;;;;;;;;17.40;43.60;;;;;;10366969;28;893;-76
2023/03/06 19:14:20;;;;;;;;;;;17.40;43.60;;;;;;10366317;28;834;-75
2023/03/06 19:19:16;;;;;;;;;;;17.40;43.70;;;;;;10366779;28;760;-76
2023/03/06 19:24:12;;;;;;;;;;;17.40;43.60;;;;;;10367302;28;1968;-75
2023/03/06 19:29:08;;;;;;;;;;;17.60;43.50;;;;;;10366637;28;807;-78
2023/03/06 19:34:03;;;;;;;;;;;17.70;43.50;;;;;;10366371;28;839;-80
2023/03/06 19:38:59;;;;;;;;;;;17.80;43.20;;;;;;10365499;28;1087;-79
2023/03/06 19:43:54;;;;;;;;;;;17.80;43.00;;;;;;10366559;28;1975;-79
2023/03/06 19:48:49;;;;;;;;;;;17.80;42.90;;;;;;10366176;28;918;-79
2023/03/06 19:53:45;;;;;;;;;;;17.90;42.80;;;;;;10372992;28;989;-79
2023/03/06 19:58:40;;;;;;;;;;;17.90;42.60;;;;;;10373752;28;854;-79
2023/03/06 20:03:36;;;;;;;;;;;17.90;42.80;;;;;;10374006;28;1906;-79
2023/03/06 20:08:31;;;;;;;;;;;18.00;42.60;;;;;;10374559;28;871;-79
2023/03/06 20:13:26;;;;;;;;;;;17.90;42.30;;;;;;10374924;28;1006;-79
2023/03/06 20:18:22;;;;;;;;;;;17.90;42.50;;;;;;10373616;28;763;-79
2023/03/06 20:23:17;;;;;;;;;;;18.00;42.30;;;;;;10373903;28;1898;-79
2023/03/06 20:28:12;;;;;;;;;;;17.90;42.50;;;;;;10373213;28;881;-79
2023/03/06 20:33:08;;;;;;;;;;;17.90;42.50;;;;;;10356054;28;910;-79
2023/03/06 20:38:03;;;;;;;;;;;17.90;42.30;;;;;;10372934;28;925;-79
2023/03/06 20:42:58;;;;;;;;;;;17.90;42.50;;;;;;10372431;28;1983;-78
2023/03/06 20:47:55;;;;;;;;;;;17.90;42.20;;;;;;10373103;28;802;-79
2023/03/06 20:52:51;;;;;;;;;;;17.80;42.10;;;;;;10373234;28;872;-79
2023/03/06 20:57:46;;;;;;;;;;;17.80;42.20;;;;;;10372880;28;844;-79
2023/03/06 21:02:42;;;;;;;;;;;17.80;42.30;;;;;;10371253;28;1905;-79
2023/03/06 21:07:37;;;;;;;;;;;17.80;42.10;;;;;;10372357;28;968;-79
2023/03/06 21:12:32;;;;;;;;;;;17.70;42.10;;;;;;10371073;28;873;-79
2023/03/06 21:17:29;;;;;;;;;;;17.80;41.90;;;;;;10370813;28;954;-79
2023/03/06 21:22:24;;;;;;;;;;;17.70;41.90;;;;;;10371760;28;1901;-80
2023/03/06 21:27:20;;;;;;;;;;;17.70;41.80;;;;;;10370952;28;773;-79
2023/03/06 21:32:15;;;;;;;;;;;17.70;42.00;;;;;;10370767;28;862;-80
2023/03/06 21:37:10;;;;;;;;;;;17.70;42.00;;;;;;10370553;28;1019;-80
2023/03/06 21:42:06;;;;;;;;;;;17.70;41.80;;;;;;10369789;28;1975;-79
2023/03/06 21:47:01;;;;;;;;;;;17.70;41.50;;;;;;10370801;28;854;-80
2023/03/06 21:51:56;;;;;;;;;;;17.70;41.80;;;;;;10369942;28;843;-80
2023/03/06 21:56:52;;;;;;;;;;;17.70;41.50;;;;;;10369963;28;914;-80
2023/03/06 22:01:47;;;;;;;;;;;17.70;41.70;;;;;;10369756;28;890;-80
2023/03/06 22:06:43;;;;;;;;;;;17.60;41.60;;;;;;10369341;28;1902;-80
2023/03/06 22:11:38;;;;;;;;;;;17.60;41.80;;;;;;10369820;28;819;-80
2023/03/06 22:16:34;;;;;;;;;;;17.60;41.50;;;;;;10368055;28;856;-79
2023/03/06 22:21:29;;;;;;;;;;;17.60;41.60;;;;;;10368251;28;843;-80
2023/03/06 22:26:24;;;;;;;;;;;17.60;41.90;;;;;;10368597;28;1967;-80
2023/03/06 22:31:20;;;;;;;;;;;17.60;41.40;;;;;;10369105;28;959;-79
2023/03/06 22:36:15;;;;;;;;;;;17.50;41.60;;;;;;10369048;28;795;-80
2023/03/06 22:41:11;;;;;;;;;;;17.50;41.80;;;;;;10367683;28;1258;-80
2023/03/06 22:46:06;;;;;;;;;;;17.50;41.50;;;;;;10367844;28;1980;-80
2023/03/06 22:51:02;;;;;;;;;;;17.50;41.60;;;;;;10367992;28;790;-80
2023/03/06 22:55:58;;;;;;;;;;;17.50;41.90;;;;;;10367557;28;894;-80
2023/03/06 23:00:53;;;;;;;;;;;17.50;41.70;;;;;;10368065;28;858;-79
2023/03/06 23:05:48;;;;;;;;;;;17.50;41.70;;;;;;10367125;28;1906;-80
2023/03/06 23:10:44;;;;;;;;;;;17.50;41.70;;;;;;10366351;28;930;-79
2023/03/06 23:15:39;;;;;;;;;;;17.50;41.60;;;;;;10348781;28;1019;-80
2023/03/06 23:20:34;;;;;;;;;;;17.50;41.70;;;;;;10366809;28;766;-80
2023/03/06 23:25:30;;;;;;;;;;;17.60;41.60;;;;;;10366344;28;1898;-80
2023/03/06 23:30:25;;;;;;;;;;;17.50;41.70;;;;;;10367134;28;848;-80
2023/03/06 23:35:21;;;;;;;;;;;17.50;41.80;;;;;;10367035;28;822;-80
2023/03/06 23:40:16;;;;;;;;;;;17.50;41.80;;;;;;10366435;28;1376;-80
2023/03/06 23:45:12;;;;;;;;;;;17.50;41.80;;;;;;10366692;28;1914;-80
2023/03/06 23:50:07;;;;;;;;;;;17.50;41.80;;;;;;10366200;28;872;-80
2023/03/06 23:55:02;;;;;;;;;;;17.50;41.70;;;;;;10366025;28;853;-80
2023/03/06 23:59:58;;;;;;;;;;;17.50;41.40;;;;;;10366545;28;850;-80
